createdAt,value
2022-10-15T00:00:46.793Z,1.40
2022-10-15T00:03:14.373Z,2.53
2022-10-15T00:05:42.100Z,2.67
2022-10-15T00:08:11.624Z,1.85
2022-10-15T00:10:39.384Z,1.55
2022-10-15T00:13:06.989Z,1.38
2022-10-15T00:15:36.936Z,1.40
2022-10-15T00:18:04.498Z,1.60
2022-10-15T00:20:32.513Z,1.50
2022-10-15T00:23:00.130Z,1.30
2022-10-15T00:25:29.294Z,1.50
2022-10-15T00:27:56.878Z,1.27
2022-10-15T00:30:24.410Z,1.75
2022-10-15T00:32:52.015Z,1.70
2022-10-15T00:35:19.679Z,1.20
2022-10-15T00:37:47.275Z,1.15
2022-10-15T00:40:15.590Z,1.65
2022-10-15T00:42:44.489Z,1.52
2022-10-15T00:45:13.320Z,1.20
2022-10-15T00:47:41.988Z,1.50
2022-10-15T00:50:10.693Z,1.30
2022-10-15T00:52:41.030Z,1.30
2022-10-15T00:55:11.225Z,1.88
2022-10-15T00:57:38.829Z,2.05
2022-10-15T01:00:09.907Z,1.25
2022-10-15T01:02:37.461Z,1.35
2022-10-15T01:05:05.589Z,1.20
2022-10-15T01:07:33.177Z,1.33
2022-10-15T01:10:00.863Z,1.40
2022-10-15T01:12:34.254Z,1.75
2022-10-15T01:15:04.805Z,1.40
2022-10-15T01:17:36.185Z,1.35
2022-10-15T01:20:35.710Z,1.27
2022-10-15T01:23:35.897Z,1.35
2022-10-15T01:26:11.661Z,1.27
2022-10-15T01:28:43.730Z,1.42
2022-10-15T01:31:15.889Z,2.17
2022-10-15T01:33:43.905Z,1.35
2022-10-15T01:36:15.082Z,1.30
2022-10-15T01:38:49.557Z,1.40
2022-10-15T01:41:19.302Z,1.20
2022-10-15T01:43:49.514Z,1.50
2022-10-15T01:46:20.719Z,1.63
2022-10-15T01:48:48.239Z,1.20
2022-10-15T01:51:15.756Z,1.27
2022-10-15T01:53:43.325Z,1.20
2022-10-15T01:56:12.628Z,1.30
2022-10-15T01:58:41.441Z,1.30
2022-10-15T02:01:09.237Z,1.20
2022-10-15T02:03:46.792Z,1.30
2022-10-15T02:06:16.569Z,2.00
2022-10-15T02:08:46.298Z,1.30
2022-10-15T02:11:14.445Z,2.15
2022-10-15T02:13:45.534Z,1.00
2022-10-15T02:16:14.234Z,1.00
2022-10-15T02:18:43.224Z,1.10
2022-10-15T02:21:14.141Z,1.35
2022-10-15T02:23:43.310Z,1.20
2022-10-15T02:26:11.022Z,1.10
2022-10-15T02:28:40.634Z,0.95
2022-10-15T02:31:08.271Z,0.88
2022-10-15T02:33:35.809Z,0.90
2022-10-15T02:36:03.586Z,1.27
2022-10-15T02:38:32.503Z,1.27
2022-10-15T02:41:00.122Z,1.23
2022-10-15T02:43:27.720Z,1.10
2022-10-15T02:45:55.257Z,1.17
2022-10-15T02:48:22.828Z,1.08
2022-10-15T02:50:50.348Z,1.27
2022-10-15T02:53:17.901Z,1.13
2022-10-15T02:55:47.061Z,1.30
2022-10-15T02:58:14.629Z,0.93
2022-10-15T03:00:42.222Z,1.00
2022-10-15T03:03:09.837Z,0.90
2022-10-15T03:05:37.631Z,1.13
2022-10-15T03:08:05.412Z,1.52
2022-10-15T03:10:32.952Z,1.08
2022-10-15T03:13:04.812Z,1.00
2022-10-15T03:15:32.388Z,0.82
2022-10-15T03:17:59.942Z,1.20
2022-10-15T03:20:27.471Z,0.90
2022-10-15T03:22:55.011Z,0.88
2022-10-15T03:25:22.825Z,0.90
2022-10-15T03:27:52.950Z,0.80
2022-10-15T03:30:22.017Z,2.78
2022-10-15T03:32:49.633Z,1.17
2022-10-15T03:35:17.279Z,0.90
2022-10-15T03:37:44.804Z,0.90
2022-10-15T03:40:14.538Z,0.90
2022-10-15T03:42:42.304Z,1.08
2022-10-15T03:45:10.624Z,0.90
2022-10-15T03:47:39.522Z,1.13
2022-10-15T03:50:07.292Z,1.00
2022-10-15T03:52:34.837Z,1.30
2022-10-15T03:55:02.376Z,0.70
2022-10-15T03:57:29.925Z,1.00
2022-10-15T03:59:57.496Z,1.00
2022-10-15T04:02:25.659Z,0.98
2022-10-15T04:04:55.296Z,1.10
2022-10-15T04:07:22.910Z,1.60
2022-10-15T04:09:50.429Z,0.73
2022-10-15T04:12:18.085Z,0.93
2022-10-15T04:14:45.755Z,0.80
2022-10-15T04:17:13.394Z,0.95
2022-10-15T04:19:40.956Z,0.80
2022-10-15T04:22:09.909Z,0.82
2022-10-15T04:24:37.576Z,0.80
2022-10-15T04:27:05.244Z,0.75
2022-10-15T04:29:32.826Z,0.80
2022-10-15T04:32:00.588Z,0.90
2022-10-15T04:34:28.550Z,0.85
2022-10-15T04:36:56.100Z,0.73
2022-10-15T04:39:24.955Z,1.45
2022-10-15T04:41:52.599Z,0.90
2022-10-15T04:44:20.174Z,0.95
2022-10-15T04:46:47.782Z,0.98
2022-10-15T04:49:15.345Z,0.80
2022-10-15T04:51:42.901Z,0.80
2022-10-15T04:54:10.455Z,1.10
2022-10-15T04:56:39.459Z,0.88
2022-10-15T04:59:07.692Z,0.68
2022-10-15T05:01:35.285Z,0.60
2022-10-15T05:04:02.846Z,0.85
2022-10-15T05:06:30.428Z,0.73
2022-10-15T05:08:58.272Z,0.80
2022-10-15T05:11:26.756Z,0.73
2022-10-15T05:13:55.801Z,0.80
2022-10-15T05:16:24.313Z,0.80
2022-10-15T05:18:52.813Z,0.88
2022-10-15T05:21:20.554Z,0.80
2022-10-15T05:23:49.987Z,0.98
2022-10-15T05:26:19.260Z,0.80
2022-10-15T05:28:46.807Z,0.70
2022-10-15T05:31:19.151Z,0.70
2022-10-15T05:33:47.021Z,0.63
2022-10-15T05:36:17.161Z,0.70
2022-10-15T05:38:44.826Z,0.70
2022-10-15T05:41:12.509Z,0.80
2022-10-15T05:43:41.393Z,0.85
2022-10-15T05:46:09.335Z,0.65
2022-10-15T05:48:38.272Z,0.70
2022-10-15T05:51:06.884Z,0.75
2022-10-15T05:53:34.637Z,0.75
2022-10-15T05:56:02.284Z,0.90
2022-10-15T05:58:33.338Z,0.55
2022-10-15T06:01:05.190Z,0.80
2022-10-15T06:03:32.903Z,0.70
2022-10-15T06:06:01.816Z,0.63
2022-10-15T06:08:29.841Z,0.80
2022-10-15T06:10:58.970Z,0.77
2022-10-15T06:15:59.100Z,1.30
2022-10-15T06:18:26.668Z,0.90
2022-10-15T06:20:54.321Z,0.57
2022-10-15T06:23:24.260Z,0.60
2022-10-15T06:25:51.971Z,0.63
2022-10-15T06:28:19.591Z,0.50
2022-10-15T06:30:47.185Z,0.98
2022-10-15T06:33:16.031Z,0.60
2022-10-15T06:35:43.572Z,0.80
2022-10-15T06:38:11.143Z,0.50
2022-10-15T06:40:40.127Z,0.75
2022-10-15T06:43:08.930Z,0.82
2022-10-15T06:45:37.186Z,0.50
2022-10-15T06:48:05.378Z,1.17
2022-10-15T06:50:33.054Z,1.25
2022-10-15T06:53:00.700Z,0.57
2022-10-15T06:55:28.950Z,2.10
2022-10-15T06:57:58.038Z,0.90
2022-10-15T07:00:25.933Z,0.65
2022-10-15T07:02:54.128Z,1.77
2022-10-15T07:05:21.744Z,1.45
2022-10-15T07:07:52.725Z,0.80
2022-10-15T07:12:47.836Z,2.72
2022-10-15T07:15:16.841Z,1.70
2022-10-15T07:17:48.252Z,1.65
2022-10-15T07:20:20.229Z,1.10
2022-10-15T07:22:52.026Z,1.40
2022-10-15T07:25:19.732Z,1.40
2022-10-15T07:27:47.284Z,2.58
2022-10-15T07:30:14.814Z,3.63
2022-10-15T07:32:46.370Z,1.35
2022-10-15T07:35:14.299Z,3.30
2022-10-15T07:37:41.925Z,2.60
2022-10-15T07:40:10.392Z,0.95
2022-10-15T07:42:38.413Z,2.00
2022-10-15T07:45:06.986Z,2.63
2022-10-15T07:47:34.606Z,4.68
2022-10-15T07:50:03.570Z,1.00
2022-10-15T07:52:32.019Z,3.70
2022-10-15T07:54:59.592Z,1.65
2022-10-15T07:57:27.116Z,3.58
2022-10-15T07:59:54.654Z,3.97
2022-10-15T08:02:22.702Z,2.25
2022-10-15T08:04:50.514Z,2.25
2022-10-15T08:07:19.417Z,8.70
2022-10-15T08:12:19.421Z,1.77
2022-10-15T08:14:47.774Z,2.92
2022-10-15T08:17:15.352Z,1.30
2022-10-15T08:19:42.935Z,1.70
2022-10-15T08:22:12.309Z,1.10
2022-10-15T08:24:41.213Z,4.50
2022-10-15T08:27:08.796Z,2.88
2022-10-15T08:29:36.336Z,2.90
2022-10-15T08:32:04.026Z,3.72
2022-10-15T08:34:31.672Z,3.45
2022-10-15T08:36:59.220Z,2.20
2022-10-15T08:39:26.837Z,1.48
2022-10-15T08:41:56.046Z,2.60
2022-10-15T08:44:27.026Z,2.08
2022-10-15T08:46:56.343Z,1.30
2022-10-15T08:49:29.537Z,1.65
2022-10-15T08:51:59.920Z,1.38
2022-10-15T08:54:27.469Z,1.17
2022-10-15T08:57:04.156Z,2.08
2022-10-15T08:59:34.118Z,2.40
2022-10-15T09:02:03.896Z,1.58
2022-10-15T09:04:32.971Z,2.05
2022-10-15T09:07:03.815Z,1.20
2022-10-15T09:09:33.860Z,3.20
2022-10-15T09:12:05.370Z,3.65
2022-10-15T09:14:35.560Z,0.88
2022-10-15T09:17:06.325Z,1.23
2022-10-15T09:19:33.886Z,1.55
2022-10-15T09:22:02.051Z,2.00
2022-10-15T09:24:30.244Z,0.90
2022-10-15T09:27:07.699Z,1.50
2022-10-15T09:29:38.229Z,2.35
2022-10-15T09:32:10.022Z,2.30
2022-10-15T09:34:40.550Z,1.65
2022-10-15T09:37:10.526Z,1.77
2022-10-15T09:39:47.935Z,5.25
2022-10-15T09:42:23.939Z,0.95
2022-10-15T09:44:51.697Z,2.92
2022-10-15T09:47:23.951Z,2.08
2022-10-15T09:49:51.549Z,1.65
2022-10-15T09:52:22.958Z,4.45
2022-10-15T09:54:55.377Z,1.92
2022-10-15T09:57:24.292Z,2.25
2022-10-15T09:59:55.630Z,5.00
2022-10-15T10:02:24.374Z,1.33
2022-10-15T10:04:52.497Z,1.58
2022-10-15T10:07:31.156Z,1.35
2022-10-15T10:09:59.484Z,1.30
2022-10-15T10:12:29.033Z,4.55
2022-10-15T10:14:57.756Z,1.25
2022-10-15T10:17:25.552Z,2.50
2022-10-15T10:20:20.591Z,1.25
2022-10-15T10:23:23.293Z,1.77
2022-10-15T10:25:50.902Z,4.13
2022-10-15T10:28:27.769Z,4.05
2022-10-15T10:31:03.378Z,1.85
2022-10-15T10:33:32.447Z,3.80
2022-10-15T10:36:00.099Z,1.77
2022-10-15T10:38:28.449Z,1.98
2022-10-15T10:40:58.052Z,2.92
2022-10-15T10:43:28.031Z,2.42
2022-10-15T10:45:57.186Z,2.20
2022-10-15T10:48:26.054Z,4.28
2022-10-15T10:51:09.292Z,1.60
2022-10-15T10:53:42.807Z,5.28
2022-10-15T10:56:11.525Z,1.58
2022-10-15T10:58:40.596Z,1.67
2022-10-15T11:01:11.871Z,3.33
2022-10-15T11:03:40.907Z,1.58
2022-10-15T11:06:19.782Z,1.50
2022-10-15T11:08:49.410Z,2.13
2022-10-15T11:11:20.384Z,2.30
2022-10-15T11:13:54.563Z,3.78
2022-10-15T11:16:25.455Z,1.95
2022-10-15T11:19:06.186Z,1.45
2022-10-15T11:21:45.898Z,1.75
2022-10-15T11:24:16.013Z,2.22
2022-10-15T11:27:11.735Z,1.80
2022-10-15T11:29:45.828Z,1.75
2022-10-15T11:32:21.025Z,3.15
2022-10-15T11:35:34.520Z,3.15
2022-10-15T11:38:15.058Z,3.28
2022-10-15T11:40:47.703Z,5.35
2022-10-15T11:43:18.197Z,6.55
2022-10-15T11:46:01.546Z,2.28
2022-10-15T11:48:35.629Z,9.07
2022-10-15T11:51:05.195Z,6.78
2022-10-15T11:53:48.057Z,5.13
2022-10-15T11:56:17.290Z,4.57
2022-10-15T11:58:46.401Z,4.55
2022-10-15T12:01:16.782Z,2.75
2022-10-15T12:03:47.753Z,3.60
2022-10-15T12:06:16.950Z,3.08
2022-10-15T12:08:44.625Z,4.90
2022-10-15T12:11:17.550Z,3.28
2022-10-15T12:13:49.498Z,3.63
2022-10-15T12:16:24.316Z,5.50
2022-10-15T12:18:54.997Z,3.70
2022-10-15T12:21:31.604Z,2.22
2022-10-15T12:23:59.280Z,6.13
2022-10-15T12:26:28.823Z,3.42
2022-10-15T12:28:59.540Z,5.00
2022-10-15T12:31:48.038Z,5.05
2022-10-15T12:34:27.662Z,3.65
2022-10-15T12:37:05.890Z,5.40
2022-10-15T12:39:51.140Z,3.97
2022-10-15T12:42:22.770Z,8.38
2022-10-15T12:44:50.414Z,4.18
2022-10-15T12:47:34.391Z,5.60
2022-10-15T12:50:05.271Z,7.65
2022-10-15T12:53:01.581Z,8.32
2022-10-15T12:55:31.099Z,8.98
2022-10-15T12:58:01.339Z,6.45
2022-10-15T13:00:43.513Z,4.32
2022-10-15T13:03:33.294Z,3.03
2022-10-15T13:06:29.037Z,2.47
2022-10-15T13:09:05.145Z,4.38
2022-10-15T13:11:33.891Z,6.10
2022-10-15T13:14:03.078Z,3.75
2022-10-15T13:16:31.133Z,2.88
2022-10-15T13:19:00.403Z,5.57
2022-10-15T13:21:49.990Z,6.38
2022-10-15T13:24:19.258Z,5.38
2022-10-15T13:26:47.075Z,4.75
2022-10-15T13:29:17.000Z,5.28
2022-10-15T13:31:45.225Z,8.20
2022-10-15T13:34:19.985Z,8.27
2022-10-15T13:36:47.773Z,3.85
2022-10-15T13:39:28.421Z,6.50
2022-10-15T13:42:06.804Z,4.88
2022-10-15T13:44:34.751Z,10.63
2022-10-15T13:47:02.519Z,9.60
2022-10-15T13:49:32.300Z,5.60
2022-10-15T13:52:03.528Z,4.82
2022-10-15T13:54:31.671Z,10.73
2022-10-15T13:57:00.383Z,8.27
2022-10-15T13:59:29.969Z,6.57
2022-10-15T14:02:02.054Z,6.03
2022-10-15T14:04:32.302Z,7.93
2022-10-15T14:07:03.635Z,5.55
2022-10-15T14:09:38.450Z,4.60
2022-10-15T14:12:06.774Z,3.53
2022-10-15T14:14:35.933Z,10.73
2022-10-15T14:17:04.680Z,8.68
2022-10-15T14:19:37.239Z,8.10
2022-10-15T14:22:06.622Z,7.07
2022-10-15T14:24:37.172Z,4.63
2022-10-15T14:27:07.086Z,4.63
2022-10-15T14:29:42.996Z,3.08
2022-10-15T14:32:29.020Z,7.03
2022-10-15T14:35:10.768Z,5.05
2022-10-15T14:37:43.686Z,4.70
2022-10-15T14:40:14.960Z,4.28
2022-10-15T14:42:47.928Z,6.05
2022-10-15T14:45:26.071Z,4.20
2022-10-15T14:47:58.107Z,4.03
2022-10-15T14:50:28.285Z,3.72
2022-10-15T14:52:55.842Z,5.50
2022-10-15T14:55:33.499Z,5.30
2022-10-15T14:58:02.068Z,12.32
2022-10-15T15:00:30.438Z,13.13
2022-10-15T15:02:58.152Z,28.05
2022-10-15T15:05:27.183Z,19.30
2022-10-15T15:07:55.815Z,22.70
2022-10-15T15:10:23.729Z,22.67
2022-10-15T15:12:52.401Z,18.70
2022-10-15T15:15:20.867Z,19.98
2022-10-15T15:17:48.811Z,18.35
2022-10-15T15:20:17.038Z,20.02
2022-10-15T15:22:46.125Z,17.23
2022-10-15T15:25:15.244Z,14.80
2022-10-15T15:27:42.821Z,12.38
2022-10-15T15:30:16.174Z,13.40
2022-10-15T15:32:43.803Z,11.77
2022-10-15T15:35:21.369Z,16.55
2022-10-15T15:37:50.337Z,10.80
2022-10-15T15:40:17.969Z,13.25
2022-10-15T15:42:46.645Z,19.10
2022-10-15T15:45:19.614Z,11.60
2022-10-15T15:47:47.324Z,10.30
2022-10-15T15:50:15.274Z,8.07
2022-10-15T15:52:43.644Z,10.50
2022-10-15T15:55:12.728Z,8.57
2022-10-15T15:57:40.334Z,7.82
2022-10-15T16:00:10.095Z,6.68
2022-10-15T16:02:38.993Z,10.30
2022-10-15T16:05:07.316Z,7.28
2022-10-15T16:07:37.994Z,9.10
2022-10-15T16:10:09.236Z,6.50
2022-10-15T16:12:38.603Z,11.73
2022-10-15T16:15:10.198Z,8.15
2022-10-15T16:17:41.715Z,11.07
2022-10-15T16:20:12.376Z,8.20
2022-10-15T16:22:40.150Z,7.75
2022-10-15T16:25:09.258Z,5.07
2022-10-15T16:27:38.613Z,6.38
2022-10-15T16:30:07.373Z,9.00
2022-10-15T16:32:34.991Z,5.65
2022-10-15T16:35:02.549Z,7.40
2022-10-15T16:37:30.140Z,15.88
2022-10-15T16:39:58.284Z,6.75
2022-10-15T16:42:25.819Z,5.85
2022-10-15T16:44:54.708Z,7.03
2022-10-15T16:47:22.478Z,6.10
2022-10-15T16:49:50.224Z,6.72
2022-10-15T16:52:17.791Z,7.82
2022-10-15T16:54:45.398Z,5.53
2022-10-15T16:57:12.967Z,4.53
2022-10-15T16:59:40.602Z,9.23
2022-10-15T17:02:09.906Z,6.35
2022-10-15T17:04:37.538Z,4.20
2022-10-15T17:07:05.085Z,6.95
2022-10-15T17:09:32.680Z,4.63
2022-10-15T17:12:00.266Z,4.65
2022-10-15T17:14:27.780Z,6.90
2022-10-15T17:16:55.451Z,8.10
2022-10-15T17:19:27.816Z,6.50
2022-10-15T17:21:58.210Z,3.58
2022-10-15T17:24:25.773Z,5.47
2022-10-15T17:26:54.697Z,6.70
2022-10-15T17:29:27.714Z,9.15
2022-10-15T17:31:58.440Z,7.40
2022-10-15T17:34:27.880Z,6.63
2022-10-15T17:36:56.404Z,8.38
2022-10-15T17:39:24.122Z,9.05
2022-10-15T17:41:51.871Z,2.92
2022-10-15T17:44:19.548Z,6.68
2022-10-15T17:49:19.556Z,6.20
2022-10-15T17:51:48.514Z,5.30
2022-10-15T17:54:16.305Z,5.38
2022-10-15T17:56:43.979Z,4.38
2022-10-15T17:59:12.414Z,4.57
2022-10-15T18:04:28.778Z,4.35
2022-10-15T18:06:57.741Z,4.72
2022-10-15T18:09:25.511Z,3.17
2022-10-15T18:11:53.077Z,4.57
2022-10-15T18:16:53.178Z,4.88
2022-10-15T18:19:20.787Z,5.70
2022-10-15T18:21:49.637Z,3.30
2022-10-15T18:24:21.790Z,4.15
2022-10-15T18:26:49.942Z,3.95
2022-10-15T18:29:17.647Z,3.95
2022-10-15T18:31:45.157Z,6.50
2022-10-15T18:34:12.697Z,6.07
2022-10-15T18:36:42.378Z,3.35
2022-10-15T18:39:10.058Z,3.53
2022-10-15T18:41:40.108Z,4.88
2022-10-15T18:44:09.000Z,3.47
2022-10-15T18:46:38.337Z,6.15
2022-10-15T18:49:06.381Z,4.53
2022-10-15T18:51:33.985Z,3.88
2022-10-15T18:54:01.618Z,4.97
2022-10-15T18:56:29.160Z,3.75
2022-10-15T18:58:58.088Z,4.28
2022-10-15T19:01:27.338Z,4.38
2022-10-15T19:04:16.705Z,4.15
2022-10-15T19:06:45.360Z,4.90
2022-10-15T19:09:14.236Z,3.97
2022-10-15T19:11:42.491Z,3.90
2022-10-15T19:14:11.410Z,3.92
2022-10-15T19:16:38.944Z,3.85
2022-10-15T19:19:06.960Z,6.20
2022-10-15T19:21:35.553Z,4.72
2022-10-15T19:24:03.129Z,3.55
2022-10-15T19:26:30.797Z,4.82
2022-10-15T19:28:58.577Z,4.57
2022-10-15T19:31:28.542Z,3.55
2022-10-15T19:33:57.907Z,2.28
2022-10-15T19:36:26.497Z,5.38
2022-10-15T19:38:54.152Z,4.65
2022-10-15T19:41:21.778Z,3.47
2022-10-15T19:43:49.376Z,3.38
2022-10-15T19:46:16.988Z,2.88
2022-10-15T19:48:45.910Z,4.13
2022-10-15T19:51:13.577Z,4.78
2022-10-15T19:53:41.376Z,2.30
2022-10-15T19:56:10.165Z,3.65
2022-10-15T19:58:37.898Z,7.65
2022-10-15T20:01:06.191Z,4.35
2022-10-15T20:06:03.713Z,2.65
2022-10-15T20:08:31.719Z,2.58
2022-10-15T20:10:59.777Z,3.20
2022-10-15T20:13:27.384Z,3.45
2022-10-15T20:15:55.102Z,2.92
2022-10-15T20:18:24.609Z,2.83
2022-10-15T20:20:52.128Z,2.55
2022-10-15T20:23:22.473Z,2.10
2022-10-15T20:25:50.064Z,2.42
2022-10-15T20:28:18.464Z,2.15
2022-10-15T20:30:47.235Z,2.50
2022-10-15T20:33:14.917Z,2.08
2022-10-15T20:35:42.649Z,3.95
2022-10-15T20:38:10.193Z,2.95
2022-10-15T20:40:40.220Z,3.15
2022-10-15T20:43:07.771Z,2.30
2022-10-15T20:45:39.569Z,3.80
2022-10-15T20:48:07.297Z,2.45
2022-10-15T20:50:35.464Z,2.63
2022-10-15T20:53:02.976Z,2.92
2022-10-15T20:55:30.516Z,2.65
2022-10-15T20:57:59.493Z,2.65
2022-10-15T21:00:27.110Z,3.05
2022-10-15T21:02:54.691Z,3.13
2022-10-15T21:05:22.395Z,2.05
2022-10-15T21:07:50.042Z,2.03
2022-10-15T21:10:17.742Z,2.15
2022-10-15T21:12:45.301Z,2.72
2022-10-15T21:15:14.273Z,2.83
2022-10-15T21:17:41.935Z,4.10
2022-10-15T21:20:10.288Z,2.50
2022-10-15T21:22:37.833Z,1.98
2022-10-15T21:25:06.366Z,2.38
2022-10-15T21:27:33.976Z,2.50
2022-10-15T21:30:01.491Z,3.47
2022-10-15T21:32:30.397Z,2.75
2022-10-15T21:34:57.969Z,2.25
2022-10-15T21:37:25.766Z,2.45
2022-10-15T21:39:53.579Z,2.38
2022-10-15T21:42:21.138Z,2.28
2022-10-15T21:44:48.715Z,2.15
2022-10-15T21:47:16.313Z,2.65
2022-10-15T21:49:45.742Z,3.45
2022-10-15T21:52:13.565Z,1.65
2022-10-15T21:54:41.077Z,1.83
2022-10-15T21:57:08.604Z,2.17
2022-10-15T21:59:36.136Z,3.33
2022-10-15T22:02:03.846Z,1.70
2022-10-15T22:04:33.901Z,2.25
2022-10-15T22:07:03.059Z,2.33
2022-10-15T22:09:30.956Z,2.33
2022-10-15T22:11:58.565Z,2.50
2022-10-15T22:14:26.132Z,2.45
2022-10-15T22:16:53.700Z,1.70
2022-10-15T22:19:21.336Z,2.85
2022-10-15T22:21:48.873Z,2.65
2022-10-15T22:24:18.654Z,2.17
2022-10-15T22:26:47.429Z,1.58
2022-10-15T22:29:18.512Z,1.88
2022-10-15T22:31:46.103Z,1.65
2022-10-15T22:34:13.719Z,1.95
2022-10-15T22:36:41.236Z,2.13
2022-10-15T22:39:09.028Z,2.88
2022-10-15T22:41:39.594Z,3.47
2022-10-15T22:44:07.254Z,3.03
2022-10-15T22:46:35.221Z,1.60
2022-10-15T22:49:02.781Z,1.85
2022-10-15T22:51:30.318Z,1.67
2022-10-15T22:53:57.971Z,2.20
2022-10-15T22:56:25.808Z,1.90
2022-10-15T22:58:55.489Z,2.50
2022-10-15T23:01:23.872Z,1.73
2022-10-15T23:03:52.088Z,1.98
2022-10-15T23:06:20.309Z,2.92
2022-10-15T23:08:48.048Z,1.77
2022-10-15T23:11:16.752Z,2.50
2022-10-15T23:13:44.468Z,1.48
2022-10-15T23:16:14.683Z,1.92
2022-10-15T23:18:43.427Z,1.90
2022-10-15T23:21:13.178Z,2.10
2022-10-15T23:23:40.725Z,2.00
2022-10-15T23:26:08.287Z,1.63
2022-10-15T23:28:35.943Z,2.33
2022-10-15T23:31:03.488Z,1.88
2022-10-15T23:33:32.421Z,2.65
2022-10-15T23:36:00.796Z,1.90
2022-10-15T23:38:28.569Z,2.08
2022-10-15T23:41:02.565Z,1.98
2022-10-15T23:43:30.133Z,1.70
2022-10-15T23:45:57.819Z,1.60
2022-10-15T23:48:25.993Z,2.15
2022-10-15T23:51:14.464Z,2.50
2022-10-15T23:56:14.761Z,1.60
2022-10-15T23:58:42.411Z,1.83
